sensor_id;sensor_type;location;lat;lon;timestamp;P1;durP1;ratioP1;P2;durP2;ratioP2
48859;SDS011;34679;51.436;-2.518;2022-08-19T00:00:15;4.32;;;0.50;;
48859;SDS011;34679;51.436;-2.518;2022-08-19T00:02:42;3.92;;;0.80;;
48859;SDS011;34679;51.436;-2.518;2022-08-19T00:05:08;2.10;;;0.70;;
48859;SDS011;34679;51.436;-2.518;2022-08-19T00:07:35;0.90;;;0.50;;
48859;SDS011;34679;51.436;-2.518;2022-08-19T00:10:03;0.90;;;0.40;;
48859;SDS011;34679;51.436;-2.518;2022-08-19T00:12:31;3.03;;;0.43;;
48859;SDS011;34679;51.436;-2.518;2022-08-19T00:14:57;1.27;;;0.30;;
48859;SDS011;34679;51.436;-2.518;2022-08-19T00:17:23;1.38;;;0.50;;
48859;SDS011;34679;51.436;-2.518;2022-08-19T00:19:48;1.58;;;0.25;;
48859;SDS011;34679;51.436;-2.518;2022-08-19T00:22:14;1.10;;;0.40;;
48859;SDS011;34679;51.436;-2.518;2022-08-19T00:24:41;1.50;;;0.40;;
48859;SDS011;34679;51.436;-2.518;2022-08-19T00:27:08;3.15;;;0.40;;
48859;SDS011;34679;51.436;-2.518;2022-08-19T00:29:34;1.58;;;0.40;;
48859;SDS011;34679;51.436;-2.518;2022-08-19T00:32:00;3.85;;;0.60;;
48859;SDS011;34679;51.436;-2.518;2022-08-19T00:34:26;2.92;;;0.68;;
48859;SDS011;34679;51.436;-2.518;2022-08-19T00:36:55;3.30;;;0.70;;
48859;SDS011;34679;51.436;-2.518;2022-08-19T00:39:22;3.13;;;0.63;;
48859;SDS011;34679;51.436;-2.518;2022-08-19T00:41:48;5.35;;;0.70;;
48859;SDS011;34679;51.436;-2.518;2022-08-19T00:44:19;4.75;;;1.10;;
48859;SDS011;34679;51.436;-2.518;2022-08-19T00:46:53;2.78;;;0.40;;
48859;SDS011;34679;51.436;-2.518;2022-08-19T00:52:17;3.65;;;0.50;;
48859;SDS011;34679;51.436;-2.518;2022-08-19T00:54:43;3.58;;;0.50;;
48859;SDS011;34679;51.436;-2.518;2022-08-19T00:57:14;1.58;;;0.30;;
48859;SDS011;34679;51.436;-2.518;2022-08-19T00:59:42;4.70;;;0.82;;
48859;SDS011;34679;51.436;-2.518;2022-08-19T01:02:11;0.80;;;0.38;;
48859;SDS011;34679;51.436;-2.518;2022-08-19T01:04:37;4.07;;;0.90;;
48859;SDS011;34679;51.436;-2.518;2022-08-19T01:07:03;5.35;;;0.70;;
48859;SDS011;34679;51.436;-2.518;2022-08-19T01:09:29;3.40;;;0.63;;
48859;SDS011;34679;51.436;-2.518;2022-08-19T01:11:56;6.85;;;1.42;;
48859;SDS011;34679;51.436;-2.518;2022-08-19T01:14:22;7.57;;;0.82;;
48859;SDS011;34679;51.436;-2.518;2022-08-19T01:16:48;5.45;;;0.93;;
48859;SDS011;34679;51.436;-2.518;2022-08-19T01:19:23;6.00;;;0.60;;
48859;SDS011;34679;51.436;-2.518;2022-08-19T01:21:55;2.53;;;0.85;;
48859;SDS011;34679;51.436;-2.518;2022-08-19T01:24:26;3.15;;;0.82;;
48859;SDS011;34679;51.436;-2.518;2022-08-19T01:26:56;2.35;;;0.68;;
48859;SDS011;34679;51.436;-2.518;2022-08-19T01:29:21;3.80;;;0.95;;
48859;SDS011;34679;51.436;-2.518;2022-08-19T01:31:47;3.25;;;0.75;;
48859;SDS011;34679;51.436;-2.518;2022-08-19T01:34:14;4.22;;;0.70;;
48859;SDS011;34679;51.436;-2.518;2022-08-19T01:36:42;5.95;;;0.70;;
48859;SDS011;34679;51.436;-2.518;2022-08-19T01:39:13;6.78;;;0.80;;
48859;SDS011;34679;51.436;-2.518;2022-08-19T01:41:41;5.55;;;0.90;;
48859;SDS011;34679;51.436;-2.518;2022-08-19T01:44:08;2.10;;;0.82;;
48859;SDS011;34679;51.436;-2.518;2022-08-19T01:46:35;5.07;;;0.70;;
48859;SDS011;34679;51.436;-2.518;2022-08-19T01:49:02;3.08;;;0.70;;
48859;SDS011;34679;51.436;-2.518;2022-08-19T01:51:28;5.32;;;0.75;;
48859;SDS011;34679;51.436;-2.518;2022-08-19T01:53:55;5.40;;;1.13;;
48859;SDS011;34679;51.436;-2.518;2022-08-19T01:56:21;3.55;;;0.80;;
48859;SDS011;34679;51.436;-2.518;2022-08-19T01:58:52;3.83;;;0.98;;
48859;SDS011;34679;51.436;-2.518;2022-08-19T02:01:26;3.78;;;0.90;;
48859;SDS011;34679;51.436;-2.518;2022-08-19T02:03:52;3.88;;;0.65;;
48859;SDS011;34679;51.436;-2.518;2022-08-19T02:06:18;8.05;;;1.75;;
48859;SDS011;34679;51.436;-2.518;2022-08-19T02:08:45;7.15;;;2.88;;
48859;SDS011;34679;51.436;-2.518;2022-08-19T02:11:17;5.55;;;1.02;;
48859;SDS011;34679;51.436;-2.518;2022-08-19T02:13:49;8.07;;;1.27;;
48859;SDS011;34679;51.436;-2.518;2022-08-19T02:16:16;2.92;;;1.02;;
48859;SDS011;34679;51.436;-2.518;2022-08-19T02:18:42;8.15;;;2.33;;
48859;SDS011;34679;51.436;-2.518;2022-08-19T02:21:08;9.32;;;1.48;;
48859;SDS011;34679;51.436;-2.518;2022-08-19T02:23:35;10.95;;;1.95;;
48859;SDS011;34679;51.436;-2.518;2022-08-19T02:26:01;6.85;;;1.38;;
48859;SDS011;34679;51.436;-2.518;2022-08-19T02:28:27;3.28;;;1.40;;
48859;SDS011;34679;51.436;-2.518;2022-08-19T02:30:53;10.77;;;1.60;;
48859;SDS011;34679;51.436;-2.518;2022-08-19T02:33:18;7.40;;;1.92;;
48859;SDS011;34679;51.436;-2.518;2022-08-19T02:35:44;6.25;;;1.55;;
48859;SDS011;34679;51.436;-2.518;2022-08-19T02:38:11;10.52;;;2.20;;
48859;SDS011;34679;51.436;-2.518;2022-08-19T02:40:53;13.60;;;2.08;;
48859;SDS011;34679;51.436;-2.518;2022-08-19T02:43:22;10.43;;;1.33;;
48859;SDS011;34679;51.436;-2.518;2022-08-19T02:45:49;11.02;;;1.27;;
48859;SDS011;34679;51.436;-2.518;2022-08-19T02:48:16;5.72;;;1.50;;
48859;SDS011;34679;51.436;-2.518;2022-08-19T02:50:43;6.57;;;1.50;;
48859;SDS011;34679;51.436;-2.518;2022-08-19T02:53:09;4.55;;;1.30;;
48859;SDS011;34679;51.436;-2.518;2022-08-19T02:55:35;7.38;;;1.55;;
48859;SDS011;34679;51.436;-2.518;2022-08-19T02:58:08;11.13;;;1.40;;
48859;SDS011;34679;51.436;-2.518;2022-08-19T03:00:33;12.00;;;1.70;;
48859;SDS011;34679;51.436;-2.518;2022-08-19T03:02:59;8.77;;;2.00;;
48859;SDS011;34679;51.436;-2.518;2022-08-19T03:05:25;11.50;;;3.30;;
48859;SDS011;34679;51.436;-2.518;2022-08-19T03:07:52;7.35;;;1.20;;
48859;SDS011;34679;51.436;-2.518;2022-08-19T03:10:18;8.38;;;1.75;;
48859;SDS011;34679;51.436;-2.518;2022-08-19T03:12:44;10.90;;;2.45;;
48859;SDS011;34679;51.436;-2.518;2022-08-19T03:15:11;8.98;;;2.00;;
48859;SDS011;34679;51.436;-2.518;2022-08-19T03:17:37;6.47;;;1.63;;
48859;SDS011;34679;51.436;-2.518;2022-08-19T03:20:03;9.77;;;1.85;;
48859;SDS011;34679;51.436;-2.518;2022-08-19T03:22:29;11.65;;;1.88;;
48859;SDS011;34679;51.436;-2.518;2022-08-19T03:24:55;7.72;;;2.05;;
48859;SDS011;34679;51.436;-2.518;2022-08-19T03:27:21;5.72;;;1.90;;
48859;SDS011;34679;51.436;-2.518;2022-08-19T03:29:47;9.32;;;2.05;;
48859;SDS011;34679;51.436;-2.518;2022-08-19T03:32:13;9.75;;;2.08;;
48859;SDS011;34679;51.436;-2.518;2022-08-19T03:34:39;13.32;;;2.58;;
48859;SDS011;34679;51.436;-2.518;2022-08-19T03:37:06;11.38;;;2.10;;
48859;SDS011;34679;51.436;-2.518;2022-08-19T03:39:35;11.73;;;1.88;;
48859;SDS011;34679;51.436;-2.518;2022-08-19T03:42:02;12.98;;;3.45;;
48859;SDS011;34679;51.436;-2.518;2022-08-19T03:44:28;8.90;;;1.90;;
48859;SDS011;34679;51.436;-2.518;2022-08-19T03:46:56;13.05;;;2.70;;
48859;SDS011;34679;51.436;-2.518;2022-08-19T03:49:24;17.90;;;2.58;;
48859;SDS011;34679;51.436;-2.518;2022-08-19T03:51:53;14.18;;;3.25;;
48859;SDS011;34679;51.436;-2.518;2022-08-19T03:54:21;15.85;;;2.63;;
48859;SDS011;34679;51.436;-2.518;2022-08-19T03:56:49;19.05;;;2.72;;
48859;SDS011;34679;51.436;-2.518;2022-08-19T03:59:19;18.20;;;2.60;;
48859;SDS011;34679;51.436;-2.518;2022-08-19T04:01:54;16.17;;;2.42;;
48859;SDS011;34679;51.436;-2.518;2022-08-19T04:04:20;22.92;;;4.88;;
48859;SDS011;34679;51.436;-2.518;2022-08-19T04:06:46;16.55;;;3.00;;
48859;SDS011;34679;51.436;-2.518;2022-08-19T04:09:13;18.40;;;3.97;;
48859;SDS011;34679;51.436;-2.518;2022-08-19T04:11:41;22.75;;;5.03;;
48859;SDS011;34679;51.436;-2.518;2022-08-19T04:14:12;17.60;;;3.08;;
48859;SDS011;34679;51.436;-2.518;2022-08-19T04:16:41;18.17;;;4.03;;
48859;SDS011;34679;51.436;-2.518;2022-08-19T04:19:09;27.20;;;3.50;;
48859;SDS011;34679;51.436;-2.518;2022-08-19T04:21:36;18.88;;;3.42;;
48859;SDS011;34679;51.436;-2.518;2022-08-19T04:24:02;23.10;;;3.90;;
48859;SDS011;34679;51.436;-2.518;2022-08-19T04:26:30;22.63;;;3.90;;
48859;SDS011;34679;51.436;-2.518;2022-08-19T04:28:58;13.27;;;2.95;;
48859;SDS011;34679;51.436;-2.518;2022-08-19T04:31:26;14.88;;;2.78;;
48859;SDS011;34679;51.436;-2.518;2022-08-19T04:33:58;18.33;;;3.53;;
48859;SDS011;34679;51.436;-2.518;2022-08-19T04:36:29;23.50;;;3.40;;
48859;SDS011;34679;51.436;-2.518;2022-08-19T04:38:58;17.13;;;3.60;;
48859;SDS011;34679;51.436;-2.518;2022-08-19T04:41:25;18.17;;;3.30;;
48859;SDS011;34679;51.436;-2.518;2022-08-19T04:44:10;20.70;;;4.57;;
48859;SDS011;34679;51.436;-2.518;2022-08-19T04:46:37;23.92;;;3.38;;
48859;SDS011;34679;51.436;-2.518;2022-08-19T04:49:04;16.80;;;3.30;;
48859;SDS011;34679;51.436;-2.518;2022-08-19T04:51:31;15.65;;;3.97;;
48859;SDS011;34679;51.436;-2.518;2022-08-19T04:53:58;22.20;;;3.72;;
48859;SDS011;34679;51.436;-2.518;2022-08-19T04:56:25;20.67;;;3.67;;
48859;SDS011;34679;51.436;-2.518;2022-08-19T04:58:52;18.23;;;3.28;;
48859;SDS011;34679;51.436;-2.518;2022-08-19T05:01:20;20.10;;;4.45;;
48859;SDS011;34679;51.436;-2.518;2022-08-19T05:03:51;24.27;;;4.53;;
48859;SDS011;34679;51.436;-2.518;2022-08-19T05:06:18;18.45;;;4.05;;
48859;SDS011;34679;51.436;-2.518;2022-08-19T05:08:45;22.25;;;4.00;;
48859;SDS011;34679;51.436;-2.518;2022-08-19T05:11:13;22.27;;;4.00;;
48859;SDS011;34679;51.436;-2.518;2022-08-19T05:13:53;30.60;;;4.53;;
48859;SDS011;34679;51.436;-2.518;2022-08-19T05:16:20;20.15;;;3.70;;
48859;SDS011;34679;51.436;-2.518;2022-08-19T05:18:47;22.63;;;3.95;;
48859;SDS011;34679;51.436;-2.518;2022-08-19T05:21:32;21.50;;;4.15;;
48859;SDS011;34679;51.436;-2.518;2022-08-19T05:24:17;20.00;;;4.43;;
48859;SDS011;34679;51.436;-2.518;2022-08-19T05:26:45;24.90;;;4.55;;
48859;SDS011;34679;51.436;-2.518;2022-08-19T05:29:13;27.08;;;4.82;;
48859;SDS011;34679;51.436;-2.518;2022-08-19T05:31:40;20.35;;;4.18;;
48859;SDS011;34679;51.436;-2.518;2022-08-19T05:34:06;24.17;;;4.65;;
48859;SDS011;34679;51.436;-2.518;2022-08-19T05:36:40;22.42;;;4.57;;
48859;SDS011;34679;51.436;-2.518;2022-08-19T05:39:07;21.30;;;4.10;;
48859;SDS011;34679;51.436;-2.518;2022-08-19T05:41:44;27.42;;;6.30;;
48859;SDS011;34679;51.436;-2.518;2022-08-19T05:44:12;17.33;;;4.00;;
48859;SDS011;34679;51.436;-2.518;2022-08-19T05:46:39;19.63;;;4.50;;
48859;SDS011;34679;51.436;-2.518;2022-08-19T05:49:05;18.52;;;4.05;;
48859;SDS011;34679;51.436;-2.518;2022-08-19T05:51:32;25.52;;;4.78;;
48859;SDS011;34679;51.436;-2.518;2022-08-19T05:54:00;18.92;;;4.18;;
48859;SDS011;34679;51.436;-2.518;2022-08-19T05:56:27;19.52;;;3.88;;
48859;SDS011;34679;51.436;-2.518;2022-08-19T05:58:52;20.85;;;4.38;;
48859;SDS011;34679;51.436;-2.518;2022-08-19T06:01:19;16.05;;;3.30;;
48859;SDS011;34679;51.436;-2.518;2022-08-19T06:03:45;21.17;;;4.88;;
48859;SDS011;34679;51.436;-2.518;2022-08-19T06:06:13;19.35;;;4.28;;
48859;SDS011;34679;51.436;-2.518;2022-08-19T06:08:40;13.35;;;3.90;;
48859;SDS011;34679;51.436;-2.518;2022-08-19T06:11:42;18.42;;;3.50;;
48859;SDS011;34679;51.436;-2.518;2022-08-19T06:14:03;14.23;;;3.53;;
48859;SDS011;34679;51.436;-2.518;2022-08-19T06:16:33;15.43;;;3.40;;
48859;SDS011;34679;51.436;-2.518;2022-08-19T06:19:03;14.10;;;2.92;;
48859;SDS011;34679;51.436;-2.518;2022-08-19T06:21:32;11.90;;;2.45;;
48859;SDS011;34679;51.436;-2.518;2022-08-19T06:23:59;8.32;;;2.92;;
48859;SDS011;34679;51.436;-2.518;2022-08-19T06:26:25;8.45;;;3.00;;
48859;SDS011;34679;51.436;-2.518;2022-08-19T06:28:51;10.57;;;2.78;;
48859;SDS011;34679;51.436;-2.518;2022-08-19T06:31:25;16.42;;;4.05;;
48859;SDS011;34679;51.436;-2.518;2022-08-19T06:33:53;13.05;;;2.75;;
48859;SDS011;34679;51.436;-2.518;2022-08-19T06:36:27;11.00;;;2.80;;
48859;SDS011;34679;51.436;-2.518;2022-08-19T06:38:57;11.52;;;3.17;;
48859;SDS011;34679;51.436;-2.518;2022-08-19T06:41:24;16.83;;;3.78;;
48859;SDS011;34679;51.436;-2.518;2022-08-19T06:43:51;10.57;;;2.70;;
48859;SDS011;34679;51.436;-2.518;2022-08-19T06:46:17;9.27;;;2.92;;
48859;SDS011;34679;51.436;-2.518;2022-08-19T06:48:44;10.82;;;2.58;;
48859;SDS011;34679;51.436;-2.518;2022-08-19T06:51:12;11.30;;;2.35;;
48859;SDS011;34679;51.436;-2.518;2022-08-19T06:53:44;10.40;;;2.22;;
48859;SDS011;34679;51.436;-2.518;2022-08-19T06:56:14;8.93;;;2.20;;
48859;SDS011;34679;51.436;-2.518;2022-08-19T06:58:42;7.53;;;2.47;;
48859;SDS011;34679;51.436;-2.518;2022-08-19T07:01:08;8.38;;;1.98;;
48859;SDS011;34679;51.436;-2.518;2022-08-19T07:03:34;8.80;;;2.22;;
48859;SDS011;34679;51.436;-2.518;2022-08-19T07:06:06;7.65;;;2.38;;
48859;SDS011;34679;51.436;-2.518;2022-08-19T07:08:34;15.52;;;2.80;;
48859;SDS011;34679;51.436;-2.518;2022-08-19T07:11:10;10.98;;;3.45;;
48859;SDS011;34679;51.436;-2.518;2022-08-19T07:13:38;8.98;;;2.30;;
48859;SDS011;34679;51.436;-2.518;2022-08-19T07:16:09;6.75;;;2.38;;
48859;SDS011;34679;51.436;-2.518;2022-08-19T07:18:37;12.45;;;3.08;;
48859;SDS011;34679;51.436;-2.518;2022-08-19T07:21:08;10.20;;;2.20;;
48859;SDS011;34679;51.436;-2.518;2022-08-19T07:23:46;8.65;;;2.35;;
48859;SDS011;34679;51.436;-2.518;2022-08-19T07:26:14;12.98;;;2.30;;
48859;SDS011;34679;51.436;-2.518;2022-08-19T07:28:42;12.63;;;2.33;;
48859;SDS011;34679;51.436;-2.518;2022-08-19T07:31:12;8.55;;;2.42;;
48859;SDS011;34679;51.436;-2.518;2022-08-19T07:33:40;5.82;;;2.05;;
48859;SDS011;34679;51.436;-2.518;2022-08-19T07:36:08;6.75;;;2.30;;
48859;SDS011;34679;51.436;-2.518;2022-08-19T07:38:37;15.82;;;2.35;;
48859;SDS011;34679;51.436;-2.518;2022-08-19T07:41:04;7.45;;;2.22;;
48859;SDS011;34679;51.436;-2.518;2022-08-19T07:43:30;10.45;;;2.03;;
48859;SDS011;34679;51.436;-2.518;2022-08-19T07:45:57;9.35;;;2.13;;
48859;SDS011;34679;51.436;-2.518;2022-08-19T07:48:23;8.95;;;2.15;;
48859;SDS011;34679;51.436;-2.518;2022-08-19T07:50:54;6.28;;;2.35;;
48859;SDS011;34679;51.436;-2.518;2022-08-19T07:53:23;11.70;;;2.22;;
48859;SDS011;34679;51.436;-2.518;2022-08-19T07:55:49;8.07;;;2.20;;
48859;SDS011;34679;51.436;-2.518;2022-08-19T07:58:18;8.50;;;2.15;;
48859;SDS011;34679;51.436;-2.518;2022-08-19T08:00:46;10.20;;;2.67;;
48859;SDS011;34679;51.436;-2.518;2022-08-19T08:03:14;7.95;;;2.03;;
48859;SDS011;34679;51.436;-2.518;2022-08-19T08:05:41;17.00;;;2.45;;
48859;SDS011;34679;51.436;-2.518;2022-08-19T08:08:26;15.35;;;2.65;;
48859;SDS011;34679;51.436;-2.518;2022-08-19T08:11:27;7.90;;;2.45;;
48859;SDS011;34679;51.436;-2.518;2022-08-19T08:13:53;14.48;;;2.67;;
48859;SDS011;34679;51.436;-2.518;2022-08-19T08:16:18;10.10;;;2.92;;
48859;SDS011;34679;51.436;-2.518;2022-08-19T08:18:45;15.02;;;2.60;;
48859;SDS011;34679;51.436;-2.518;2022-08-19T08:21:11;7.25;;;2.50;;
48859;SDS011;34679;51.436;-2.518;2022-08-19T08:23:36;11.07;;;3.15;;
48859;SDS011;34679;51.436;-2.518;2022-08-19T08:26:02;8.50;;;2.03;;
48859;SDS011;34679;51.436;-2.518;2022-08-19T08:28:29;9.10;;;2.60;;
48859;SDS011;34679;51.436;-2.518;2022-08-19T08:30:55;4.90;;;1.70;;
48859;SDS011;34679;51.436;-2.518;2022-08-19T08:33:22;9.35;;;2.35;;
48859;SDS011;34679;51.436;-2.518;2022-08-19T08:35:49;10.13;;;2.17;;
48859;SDS011;34679;51.436;-2.518;2022-08-19T08:38:15;8.23;;;1.85;;
48859;SDS011;34679;51.436;-2.518;2022-08-19T08:43:27;9.82;;;2.40;;
48859;SDS011;34679;51.436;-2.518;2022-08-19T08:48:44;8.93;;;3.65;;
48859;SDS011;34679;51.436;-2.518;2022-08-19T08:51:36;8.18;;;2.28;;
48859;SDS011;34679;51.436;-2.518;2022-08-19T08:54:13;10.57;;;2.70;;
48859;SDS011;34679;51.436;-2.518;2022-08-19T08:56:43;8.75;;;2.72;;
48859;SDS011;34679;51.436;-2.518;2022-08-19T09:01:48;15.10;;;2.65;;
48859;SDS011;34679;51.436;-2.518;2022-08-19T09:04:13;11.48;;;2.40;;
48859;SDS011;34679;51.436;-2.518;2022-08-19T09:06:44;8.10;;;1.98;;
48859;SDS011;34679;51.436;-2.518;2022-08-19T09:09:34;10.20;;;2.00;;
48859;SDS011;34679;51.436;-2.518;2022-08-19T09:12:07;8.23;;;1.90;;
48859;SDS011;34679;51.436;-2.518;2022-08-19T09:15:05;5.93;;;2.00;;
48859;SDS011;34679;51.436;-2.518;2022-08-19T09:17:34;8.80;;;2.88;;
48859;SDS011;34679;51.436;-2.518;2022-08-19T09:20:02;11.85;;;2.40;;
48859;SDS011;34679;51.436;-2.518;2022-08-19T09:22:34;8.18;;;2.35;;
48859;SDS011;34679;51.436;-2.518;2022-08-19T09:25:01;9.63;;;2.35;;
48859;SDS011;34679;51.436;-2.518;2022-08-19T09:27:27;10.10;;;2.22;;
48859;SDS011;34679;51.436;-2.518;2022-08-19T09:29:53;7.10;;;2.30;;
48859;SDS011;34679;51.436;-2.518;2022-08-19T09:32:20;9.80;;;2.30;;
48859;SDS011;34679;51.436;-2.518;2022-08-19T09:34:47;13.23;;;2.78;;
48859;SDS011;34679;51.436;-2.518;2022-08-19T09:37:13;5.68;;;1.98;;
48859;SDS011;34679;51.436;-2.518;2022-08-19T09:39:39;7.95;;;2.13;;
48859;SDS011;34679;51.436;-2.518;2022-08-19T09:42:09;8.07;;;2.28;;
48859;SDS011;34679;51.436;-2.518;2022-08-19T09:44:40;10.13;;;2.63;;
48859;SDS011;34679;51.436;-2.518;2022-08-19T09:47:07;10.25;;;2.42;;
48859;SDS011;34679;51.436;-2.518;2022-08-19T09:49:37;7.90;;;2.00;;
48859;SDS011;34679;51.436;-2.518;2022-08-19T09:52:05;8.93;;;2.67;;
48859;SDS011;34679;51.436;-2.518;2022-08-19T09:54:33;12.63;;;2.50;;
48859;SDS011;34679;51.436;-2.518;2022-08-19T09:56:59;10.15;;;2.25;;
48859;SDS011;34679;51.436;-2.518;2022-08-19T09:59:25;9.27;;;2.20;;
48859;SDS011;34679;51.436;-2.518;2022-08-19T10:01:52;15.85;;;2.97;;
48859;SDS011;34679;51.436;-2.518;2022-08-19T10:04:18;12.57;;;2.88;;
48859;SDS011;34679;51.436;-2.518;2022-08-19T10:06:46;10.13;;;2.60;;
48859;SDS011;34679;51.436;-2.518;2022-08-19T10:09:14;12.63;;;2.80;;
48859;SDS011;34679;51.436;-2.518;2022-08-19T10:11:42;7.57;;;2.63;;
48859;SDS011;34679;51.436;-2.518;2022-08-19T10:14:14;12.80;;;2.65;;
48859;SDS011;34679;51.436;-2.518;2022-08-19T10:16:41;16.13;;;3.78;;
48859;SDS011;34679;51.436;-2.518;2022-08-19T10:19:08;18.80;;;2.97;;
48859;SDS011;34679;51.436;-2.518;2022-08-19T10:21:34;9.93;;;2.40;;
48859;SDS011;34679;51.436;-2.518;2022-08-19T10:24:02;15.23;;;2.83;;
48859;SDS011;34679;51.436;-2.518;2022-08-19T10:26:32;16.23;;;3.15;;
48859;SDS011;34679;51.436;-2.518;2022-08-19T10:29:01;14.27;;;2.50;;
48859;SDS011;34679;51.436;-2.518;2022-08-19T10:31:30;11.80;;;2.50;;
48859;SDS011;34679;51.436;-2.518;2022-08-19T10:33:57;11.27;;;2.38;;
48859;SDS011;34679;51.436;-2.518;2022-08-19T10:36:27;15.05;;;2.97;;
48859;SDS011;34679;51.436;-2.518;2022-08-19T10:38:57;15.98;;;4.22;;
48859;SDS011;34679;51.436;-2.518;2022-08-19T10:41:31;14.55;;;3.15;;
48859;SDS011;34679;51.436;-2.518;2022-08-19T10:43:59;9.90;;;2.60;;
48859;SDS011;34679;51.436;-2.518;2022-08-19T10:46:27;15.02;;;3.10;;
48859;SDS011;34679;51.436;-2.518;2022-08-19T10:48:56;9.60;;;2.45;;
48859;SDS011;34679;51.436;-2.518;2022-08-19T10:51:22;10.65;;;2.17;;
48859;SDS011;34679;51.436;-2.518;2022-08-19T10:54:06;14.18;;;2.35;;
48859;SDS011;34679;51.436;-2.518;2022-08-19T10:56:34;14.25;;;2.53;;
48859;SDS011;34679;51.436;-2.518;2022-08-19T10:59:20;9.50;;;2.70;;
48859;SDS011;34679;51.436;-2.518;2022-08-19T11:02:03;15.02;;;3.00;;
48859;SDS011;34679;51.436;-2.518;2022-08-19T11:04:32;18.00;;;2.67;;
48859;SDS011;34679;51.436;-2.518;2022-08-19T11:06:58;13.20;;;3.10;;
48859;SDS011;34679;51.436;-2.518;2022-08-19T11:09:24;13.07;;;2.65;;
48859;SDS011;34679;51.436;-2.518;2022-08-19T11:11:52;11.43;;;2.60;;
48859;SDS011;34679;51.436;-2.518;2022-08-19T11:14:18;12.13;;;2.53;;
48859;SDS011;34679;51.436;-2.518;2022-08-19T11:16:45;17.38;;;2.80;;
48859;SDS011;34679;51.436;-2.518;2022-08-19T11:19:12;16.70;;;3.30;;
48859;SDS011;34679;51.436;-2.518;2022-08-19T11:21:42;15.15;;;2.28;;
48859;SDS011;34679;51.436;-2.518;2022-08-19T11:24:10;16.10;;;2.83;;
48859;SDS011;34679;51.436;-2.518;2022-08-19T11:26:39;12.75;;;3.13;;
48859;SDS011;34679;51.436;-2.518;2022-08-19T11:29:06;10.85;;;2.70;;
48859;SDS011;34679;51.436;-2.518;2022-08-19T11:31:36;14.88;;;2.83;;
48859;SDS011;34679;51.436;-2.518;2022-08-19T11:34:05;13.13;;;2.78;;
48859;SDS011;34679;51.436;-2.518;2022-08-19T11:36:32;14.15;;;2.45;;
48859;SDS011;34679;51.436;-2.518;2022-08-19T11:38:59;17.00;;;2.63;;
48859;SDS011;34679;51.436;-2.518;2022-08-19T11:41:25;12.77;;;3.33;;
48859;SDS011;34679;51.436;-2.518;2022-08-19T11:43:52;20.02;;;3.22;;
48859;SDS011;34679;51.436;-2.518;2022-08-19T11:46:21;11.40;;;2.40;;
48859;SDS011;34679;51.436;-2.518;2022-08-19T11:48:48;12.43;;;3.08;;
48859;SDS011;34679;51.436;-2.518;2022-08-19T11:51:17;17.13;;;2.85;;
48859;SDS011;34679;51.436;-2.518;2022-08-19T11:53:45;10.70;;;2.35;;
48859;SDS011;34679;51.436;-2.518;2022-08-19T11:56:11;10.00;;;2.45;;
48859;SDS011;34679;51.436;-2.518;2022-08-19T11:58:37;17.02;;;2.88;;
48859;SDS011;34679;51.436;-2.518;2022-08-19T12:01:07;10.77;;;2.72;;
48859;SDS011;34679;51.436;-2.518;2022-08-19T12:03:34;17.02;;;3.13;;
48859;SDS011;34679;51.436;-2.518;2022-08-19T12:06:07;9.73;;;3.22;;
48859;SDS011;34679;51.436;-2.518;2022-08-19T12:08:34;11.35;;;2.67;;
48859;SDS011;34679;51.436;-2.518;2022-08-19T12:11:01;10.55;;;2.53;;
48859;SDS011;34679;51.436;-2.518;2022-08-19T12:13:30;16.35;;;3.22;;
48859;SDS011;34679;51.436;-2.518;2022-08-19T12:15:56;16.17;;;3.03;;
48859;SDS011;34679;51.436;-2.518;2022-08-19T12:18:23;7.40;;;2.45;;
48859;SDS011;34679;51.436;-2.518;2022-08-19T12:20:52;13.80;;;2.65;;
48859;SDS011;34679;51.436;-2.518;2022-08-19T12:23:21;13.75;;;3.10;;
48859;SDS011;34679;51.436;-2.518;2022-08-19T12:25:48;17.35;;;3.00;;
48859;SDS011;34679;51.436;-2.518;2022-08-19T12:28:20;14.18;;;2.75;;
48859;SDS011;34679;51.436;-2.518;2022-08-19T12:30:48;12.35;;;2.60;;
48859;SDS011;34679;51.436;-2.518;2022-08-19T12:33:18;11.45;;;2.95;;
48859;SDS011;34679;51.436;-2.518;2022-08-19T12:35:48;17.33;;;3.47;;
48859;SDS011;34679;51.436;-2.518;2022-08-19T12:38:15;13.85;;;2.30;;
48859;SDS011;34679;51.436;-2.518;2022-08-19T12:40:41;7.57;;;1.75;;
48859;SDS011;34679;51.436;-2.518;2022-08-19T12:43:11;10.55;;;2.50;;
48859;SDS011;34679;51.436;-2.518;2022-08-19T12:45:38;9.88;;;2.40;;
48859;SDS011;34679;51.436;-2.518;2022-08-19T12:48:04;12.52;;;2.90;;
48859;SDS011;34679;51.436;-2.518;2022-08-19T12:50:30;12.43;;;2.92;;
48859;SDS011;34679;51.436;-2.518;2022-08-19T12:52:56;10.10;;;2.60;;
48859;SDS011;34679;51.436;-2.518;2022-08-19T12:55:23;20.17;;;3.13;;
48859;SDS011;34679;51.436;-2.518;2022-08-19T12:57:50;11.90;;;2.20;;
48859;SDS011;34679;51.436;-2.518;2022-08-19T13:00:17;9.60;;;2.00;;
48859;SDS011;34679;51.436;-2.518;2022-08-19T13:02:46;16.83;;;2.10;;
48859;SDS011;34679;51.436;-2.518;2022-08-19T13:05:16;11.85;;;2.65;;
48859;SDS011;34679;51.436;-2.518;2022-08-19T13:07:47;9.57;;;2.38;;
48859;SDS011;34679;51.436;-2.518;2022-08-19T13:10:16;7.88;;;2.13;;
48859;SDS011;34679;51.436;-2.518;2022-08-19T13:12:44;14.05;;;3.80;;
48859;SDS011;34679;51.436;-2.518;2022-08-19T13:15:12;16.73;;;2.63;;
48859;SDS011;34679;51.436;-2.518;2022-08-19T13:17:39;15.50;;;3.28;;
48859;SDS011;34679;51.436;-2.518;2022-08-19T13:20:05;12.75;;;2.25;;
48859;SDS011;34679;51.436;-2.518;2022-08-19T13:22:35;13.30;;;2.47;;
48859;SDS011;34679;51.436;-2.518;2022-08-19T13:25:02;21.95;;;3.15;;
48859;SDS011;34679;51.436;-2.518;2022-08-19T13:27:29;14.30;;;3.03;;
48859;SDS011;34679;51.436;-2.518;2022-08-19T13:29:54;10.02;;;2.25;;
48859;SDS011;34679;51.436;-2.518;2022-08-19T13:32:38;12.32;;;2.40;;
48859;SDS011;34679;51.436;-2.518;2022-08-19T13:35:22;13.38;;;2.50;;
48859;SDS011;34679;51.436;-2.518;2022-08-19T13:37:48;12.48;;;3.10;;
48859;SDS011;34679;51.436;-2.518;2022-08-19T13:40:18;10.85;;;2.35;;
48859;SDS011;34679;51.436;-2.518;2022-08-19T13:42:48;12.68;;;2.33;;
48859;SDS011;34679;51.436;-2.518;2022-08-19T13:45:17;13.95;;;2.85;;
48859;SDS011;34679;51.436;-2.518;2022-08-19T13:47:55;11.82;;;2.63;;
48859;SDS011;34679;51.436;-2.518;2022-08-19T13:50:23;12.10;;;2.45;;
48859;SDS011;34679;51.436;-2.518;2022-08-19T13:52:50;9.23;;;2.00;;
48859;SDS011;34679;51.436;-2.518;2022-08-19T13:55:17;7.93;;;2.10;;
48859;SDS011;34679;51.436;-2.518;2022-08-19T13:57:43;4.32;;;1.20;;
48859;SDS011;34679;51.436;-2.518;2022-08-19T14:00:12;7.10;;;2.13;;
48859;SDS011;34679;51.436;-2.518;2022-08-19T14:02:40;11.75;;;1.90;;
48859;SDS011;34679;51.436;-2.518;2022-08-19T14:05:07;5.55;;;2.10;;
48859;SDS011;34679;51.436;-2.518;2022-08-19T14:07:35;8.70;;;1.65;;
48859;SDS011;34679;51.436;-2.518;2022-08-19T14:10:01;11.60;;;1.92;;
48859;SDS011;34679;51.436;-2.518;2022-08-19T14:12:28;9.82;;;2.75;;
48859;SDS011;34679;51.436;-2.518;2022-08-19T14:14:54;5.15;;;1.60;;
48859;SDS011;34679;51.436;-2.518;2022-08-19T14:17:19;6.50;;;1.27;;
48859;SDS011;34679;51.436;-2.518;2022-08-19T14:19:46;6.43;;;1.50;;
48859;SDS011;34679;51.436;-2.518;2022-08-19T14:22:12;4.82;;;1.80;;
48859;SDS011;34679;51.436;-2.518;2022-08-19T14:24:38;9.82;;;1.85;;
48859;SDS011;34679;51.436;-2.518;2022-08-19T14:27:06;14.00;;;1.75;;
48859;SDS011;34679;51.436;-2.518;2022-08-19T14:29:32;8.77;;;1.30;;
48859;SDS011;34679;51.436;-2.518;2022-08-19T14:31:59;10.02;;;1.40;;
48859;SDS011;34679;51.436;-2.518;2022-08-19T14:34:25;11.02;;;2.65;;
48859;SDS011;34679;51.436;-2.518;2022-08-19T14:36:51;5.22;;;1.70;;
48859;SDS011;34679;51.436;-2.518;2022-08-19T14:39:18;9.60;;;1.52;;
48859;SDS011;34679;51.436;-2.518;2022-08-19T14:41:43;10.55;;;1.70;;
48859;SDS011;34679;51.436;-2.518;2022-08-19T14:44:10;5.15;;;1.40;;